createdAt,value
2022-08-17T00:00:53.682Z,987.38
2022-08-17T00:01:53.688Z,987.38
2022-08-17T00:02:53.723Z,987.41
2022-08-17T00:03:53.667Z,987.29
2022-08-17T00:04:53.658Z,987.40
2022-08-17T00:05:53.672Z,987.42
2022-08-17T00:06:53.642Z,987.40
2022-08-17T00:07:53.631Z,987.35
2022-08-17T00:08:53.639Z,987.36
2022-08-17T00:09:53.619Z,987.37
2022-08-17T00:10:53.638Z,987.35
2022-08-17T00:12:35.041Z,987.40
2022-08-17T00:12:54.857Z,987.42
2022-08-17T00:13:56.062Z,987.40
2022-08-17T00:14:53.606Z,987.37
2022-08-17T00:15:53.609Z,987.38
2022-08-17T00:16:56.916Z,987.41
2022-08-17T00:17:53.571Z,987.35
2022-08-17T00:19:01.156Z,987.33
2022-08-17T00:19:54.631Z,987.38
2022-08-17T00:20:53.597Z,987.36
2022-08-17T00:22:29.462Z,987.42
2022-08-17T00:22:54.542Z,987.43
2022-08-17T00:23:53.542Z,987.43
2022-08-17T00:24:53.588Z,987.44
2022-08-17T00:25:53.562Z,987.45
2022-08-17T00:26:53.503Z,987.49
2022-08-17T00:27:53.539Z,987.42
2022-08-17T00:28:53.592Z,987.37
2022-08-17T00:29:53.477Z,987.39
2022-08-17T00:30:53.840Z,987.36
2022-08-17T00:31:53.517Z,987.39
2022-08-17T00:33:16.082Z,987.32
2022-08-17T00:33:54.452Z,987.33
2022-08-17T00:34:53.455Z,987.29
2022-08-17T00:35:53.444Z,987.26
2022-08-17T00:36:53.448Z,987.28
2022-08-17T00:37:53.448Z,987.24
2022-08-17T00:38:53.523Z,987.23
2022-08-17T00:39:53.519Z,987.28
2022-08-17T00:40:55.985Z,987.28
2022-08-17T00:41:54.419Z,987.29
2022-08-17T00:42:53.593Z,987.26
2022-08-17T00:43:53.472Z,987.22
2022-08-17T00:44:53.527Z,987.27
2022-08-17T00:45:53.470Z,987.24
2022-08-17T00:46:53.525Z,987.25
2022-08-17T00:47:53.413Z,987.25
2022-08-17T00:48:53.487Z,987.28
2022-08-17T00:49:53.494Z,987.29
2022-08-17T00:50:53.466Z,987.28
2022-08-17T00:51:53.465Z,987.33
2022-08-17T00:52:53.406Z,987.22
2022-08-17T00:53:53.462Z,987.25
2022-08-17T00:54:53.445Z,987.25
2022-08-17T00:55:53.353Z,987.24
2022-08-17T00:56:53.441Z,987.26
2022-08-17T00:57:55.380Z,987.23
2022-08-17T00:58:54.265Z,987.26
2022-08-17T01:00:01.869Z,987.26
2022-08-17T01:00:53.385Z,987.32
2022-08-17T01:01:53.403Z,987.36
2022-08-17T01:02:53.479Z,987.35
2022-08-17T01:03:53.231Z,987.38
2022-08-17T01:04:53.227Z,987.40
2022-08-17T01:05:53.213Z,987.44
2022-08-17T01:06:53.210Z,987.39
2022-08-17T01:07:53.259Z,987.42
2022-08-17T01:08:57.671Z,987.41
2022-08-17T01:09:53.189Z,987.42
2022-08-17T01:10:58.587Z,987.37
2022-08-17T01:11:54.164Z,987.39
2022-08-17T01:12:53.232Z,987.35
2022-08-17T01:13:53.162Z,987.34
2022-08-17T01:14:53.148Z,987.39
2022-08-17T01:15:53.156Z,987.34
2022-08-17T01:16:53.149Z,987.44
2022-08-17T01:17:53.132Z,987.43
2022-08-17T01:18:53.148Z,987.40
2022-08-17T01:19:53.118Z,987.40
2022-08-17T01:20:53.110Z,987.40
2022-08-17T01:21:53.115Z,987.36
2022-08-17T01:22:53.098Z,987.32
2022-08-17T01:23:53.130Z,987.34
2022-08-17T01:24:53.077Z,987.37
2022-08-17T01:25:53.103Z,987.40
2022-08-17T01:26:53.068Z,987.44
2022-08-17T01:27:53.059Z,987.48
2022-08-17T01:28:55.538Z,987.47
2022-08-17T01:29:53.057Z,987.45
2022-08-17T01:30:57.851Z,987.43
2022-08-17T01:31:54.035Z,987.47
2022-08-17T01:32:53.033Z,987.45
2022-08-17T01:33:53.051Z,987.42
2022-08-17T01:34:53.021Z,987.44
2022-08-17T01:35:53.005Z,987.40
2022-08-17T01:36:52.994Z,987.37
2022-08-17T01:37:52.990Z,987.36
2022-08-17T01:38:53.020Z,987.38
2022-08-17T01:39:53.057Z,987.36
2022-08-17T01:40:57.587Z,987.33
2022-08-17T01:41:52.976Z,987.38
2022-08-17T01:42:52.970Z,987.42
2022-08-17T01:43:52.997Z,987.39
2022-08-17T01:44:52.947Z,987.38
2022-08-17T01:46:02.697Z,987.42
2022-08-17T01:46:53.928Z,987.40
2022-08-17T01:47:52.926Z,987.37
2022-08-17T01:48:52.941Z,987.43
2022-08-17T01:49:52.940Z,987.40
2022-08-17T01:50:52.903Z,987.39
2022-08-17T01:51:52.886Z,987.37
2022-08-17T01:52:52.878Z,987.38
2022-08-17T01:53:52.877Z,987.33
2022-08-17T01:54:52.944Z,987.30
2022-08-17T01:55:52.869Z,987.37
2022-08-17T01:56:52.861Z,987.34
2022-08-17T01:57:52.852Z,987.35
2022-08-17T01:58:52.851Z,987.42
2022-08-17T01:59:52.870Z,987.43
2022-08-17T02:01:00.444Z,987.44
2022-08-17T02:01:53.888Z,987.43
2022-08-17T02:02:52.820Z,987.40
2022-08-17T02:03:59.102Z,987.42
2022-08-17T02:04:52.832Z,987.35
2022-08-17T02:05:52.805Z,987.29
2022-08-17T02:06:54.443Z,987.34
2022-08-17T02:08:00.514Z,987.25
2022-08-17T02:09:03.271Z,987.35
2022-08-17T02:09:53.808Z,987.36
2022-08-17T02:10:52.762Z,987.31
2022-08-17T02:11:52.758Z,987.34
2022-08-17T02:12:52.903Z,987.35
2022-08-17T02:13:55.129Z,987.26
2022-08-17T02:14:53.735Z,987.30
2022-08-17T02:15:52.740Z,987.35
2022-08-17T02:16:52.710Z,987.34
2022-08-17T02:17:54.586Z,987.35
2022-08-17T02:18:52.700Z,987.33
2022-08-17T02:19:52.697Z,987.37
2022-08-17T02:20:52.715Z,987.34
2022-08-17T02:21:52.685Z,987.34
2022-08-17T02:22:52.675Z,987.35
2022-08-17T02:23:52.673Z,987.36
2022-08-17T02:24:59.901Z,987.36
2022-08-17T02:25:53.684Z,987.42
2022-08-17T02:26:52.641Z,987.37
2022-08-17T02:27:52.651Z,987.33
2022-08-17T02:28:52.632Z,987.39
2022-08-17T02:29:52.617Z,987.33
2022-08-17T02:31:01.383Z,987.34
2022-08-17T02:31:53.600Z,987.34
2022-08-17T02:32:52.595Z,987.32
2022-08-17T02:34:03.344Z,987.26
2022-08-17T02:34:53.600Z,987.28
2022-08-17T02:35:52.624Z,987.30
2022-08-17T02:36:52.572Z,987.24
2022-08-17T02:37:55.467Z,987.23
2022-08-17T02:38:52.572Z,987.25
2022-08-17T02:39:52.640Z,987.25
2022-08-17T02:40:52.545Z,987.26
2022-08-17T02:41:52.563Z,987.25
2022-08-17T02:42:52.542Z,987.20
2022-08-17T02:43:52.533Z,987.25
2022-08-17T02:44:52.515Z,987.28
2022-08-17T02:45:52.515Z,987.23
2022-08-17T02:46:52.534Z,987.28
2022-08-17T02:47:52.509Z,987.22
2022-08-17T02:48:52.496Z,987.20
2022-08-17T02:49:54.461Z,987.17
2022-08-17T02:50:52.486Z,987.18
2022-08-17T02:51:52.505Z,987.23
2022-08-17T02:52:57.265Z,987.24
2022-08-17T02:53:53.465Z,987.24
2022-08-17T02:54:53.445Z,987.19
2022-08-17T02:55:52.466Z,987.24
2022-08-17T02:56:52.498Z,987.29
2022-08-17T02:57:52.438Z,987.21
2022-08-17T02:58:52.495Z,987.28
2022-08-17T02:59:52.415Z,987.26
2022-08-17T03:00:52.409Z,987.27
2022-08-17T03:01:53.690Z,987.26
2022-08-17T03:02:52.542Z,987.30
2022-08-17T03:03:52.381Z,987.24
2022-08-17T03:04:52.388Z,987.28
2022-08-17T03:05:52.375Z,987.27
2022-08-17T03:06:52.388Z,987.18
2022-08-17T03:07:52.377Z,987.18
2022-08-17T03:08:52.369Z,987.19
2022-08-17T03:09:52.343Z,987.22
2022-08-17T03:10:52.338Z,987.16
2022-08-17T03:11:53.189Z,987.20
2022-08-17T03:12:52.462Z,987.14
2022-08-17T03:13:52.312Z,987.15
2022-08-17T03:14:52.317Z,987.16
2022-08-17T03:15:52.299Z,987.15
2022-08-17T03:16:52.323Z,987.16
2022-08-17T03:17:52.318Z,987.16
2022-08-17T03:18:52.267Z,987.17
2022-08-17T03:19:52.266Z,987.15
2022-08-17T03:20:52.260Z,987.12
2022-08-17T03:21:55.157Z,987.11
2022-08-17T03:22:53.209Z,987.11
2022-08-17T03:23:54.364Z,987.09
2022-08-17T03:24:52.236Z,987.09
2022-08-17T03:25:53.031Z,987.01
2022-08-17T03:26:52.249Z,987.06
2022-08-17T03:27:52.238Z,987.15
2022-08-17T03:28:52.205Z,987.13
2022-08-17T03:29:52.206Z,987.11
2022-08-17T03:30:52.199Z,987.08
2022-08-17T03:31:52.202Z,987.14
2022-08-17T03:32:52.446Z,987.17
2022-08-17T03:33:52.173Z,987.16
2022-08-17T03:34:52.170Z,987.18
2022-08-17T03:35:52.169Z,987.20
2022-08-17T03:36:52.154Z,987.16
2022-08-17T03:38:00.348Z,987.16
2022-08-17T03:38:53.126Z,987.17
2022-08-17T03:39:52.159Z,987.20
2022-08-17T03:40:56.753Z,987.18
2022-08-17T03:41:53.119Z,987.13
2022-08-17T03:42:52.180Z,987.14
2022-08-17T03:43:52.103Z,987.20
2022-08-17T03:44:52.094Z,987.13
2022-08-17T03:45:52.096Z,987.20
2022-08-17T03:46:52.070Z,987.19
2022-08-17T03:47:52.133Z,987.17
2022-08-17T03:48:52.074Z,987.19
2022-08-17T03:49:52.059Z,987.21
2022-08-17T03:50:52.050Z,987.26
2022-08-17T03:51:52.053Z,987.23
2022-08-17T03:52:52.104Z,987.23
2022-08-17T03:53:52.034Z,987.22
2022-08-17T03:54:52.027Z,987.26
2022-08-17T03:55:52.026Z,987.23
2022-08-17T03:56:52.014Z,987.26
2022-08-17T03:57:52.003Z,987.28
2022-08-17T03:58:52.030Z,987.30
2022-08-17T03:59:51.996Z,987.30
2022-08-17T04:00:51.984Z,987.31
2022-08-17T04:01:52.029Z,987.39
2022-08-17T04:02:52.169Z,987.31
2022-08-17T04:03:51.998Z,987.33
2022-08-17T04:04:51.963Z,987.27
2022-08-17T04:05:51.962Z,987.32
2022-08-17T04:06:51.976Z,987.31
2022-08-17T04:07:51.942Z,987.27
2022-08-17T04:08:51.978Z,987.28
2022-08-17T04:09:51.930Z,987.33
2022-08-17T04:10:51.914Z,987.29
2022-08-17T04:11:51.919Z,987.34
2022-08-17T04:12:52.144Z,987.25
2022-08-17T04:13:51.951Z,987.28
2022-08-17T04:14:54.746Z,987.29
2022-08-17T04:15:51.885Z,987.25
2022-08-17T04:16:51.876Z,987.28
2022-08-17T04:17:51.868Z,987.30
2022-08-17T04:18:51.872Z,987.27
2022-08-17T04:19:51.896Z,987.33
2022-08-17T04:20:51.850Z,987.33
2022-08-17T04:21:51.844Z,987.39
2022-08-17T04:22:51.953Z,987.41
2022-08-17T04:23:51.837Z,987.33
2022-08-17T04:24:51.845Z,987.43
2022-08-17T04:25:51.799Z,987.42
2022-08-17T04:26:53.140Z,987.44
2022-08-17T04:27:51.804Z,987.36
2022-08-17T04:28:51.797Z,987.40
2022-08-17T04:29:54.702Z,987.38
2022-08-17T04:30:51.780Z,987.34
2022-08-17T04:31:51.772Z,987.36
2022-08-17T04:33:00.649Z,987.42
2022-08-17T04:33:52.756Z,987.41
2022-08-17T04:34:51.791Z,987.43
2022-08-17T04:35:51.754Z,987.47
2022-08-17T04:36:51.735Z,987.47
2022-08-17T04:37:51.721Z,987.50
2022-08-17T04:38:51.711Z,987.51
2022-08-17T04:39:51.830Z,987.43
2022-08-17T04:40:51.706Z,987.40
2022-08-17T04:41:51.683Z,987.42
2022-08-17T04:42:51.818Z,987.42
2022-08-17T04:43:52.688Z,987.47
2022-08-17T04:44:51.677Z,987.48
2022-08-17T04:45:55.883Z,987.46
2022-08-17T04:46:51.700Z,987.44
2022-08-17T04:47:51.692Z,987.51
2022-08-17T04:48:51.649Z,987.49
2022-08-17T04:49:51.642Z,987.52
2022-08-17T04:50:51.661Z,987.43
2022-08-17T04:51:56.196Z,987.52
2022-08-17T04:52:52.626Z,987.55
2022-08-17T04:53:54.390Z,987.54
2022-08-17T04:54:51.605Z,987.51
2022-08-17T04:55:51.619Z,987.54
2022-08-17T04:56:51.589Z,987.59
2022-08-17T04:57:51.592Z,987.51
2022-08-17T04:58:51.571Z,987.49
2022-08-17T04:59:51.568Z,987.57
2022-08-17T05:00:51.637Z,987.59
2022-08-17T05:01:51.556Z,987.55
2022-08-17T05:02:51.618Z,987.59
2022-08-17T05:03:51.598Z,987.65
2022-08-17T05:04:51.538Z,987.70
2022-08-17T05:05:51.556Z,987.67
2022-08-17T05:06:51.521Z,987.64
2022-08-17T05:07:51.510Z,987.68
2022-08-17T05:08:51.515Z,987.65
2022-08-17T05:09:51.500Z,987.67
2022-08-17T05:10:51.530Z,987.71
2022-08-17T05:11:51.487Z,987.77
2022-08-17T05:12:51.643Z,987.72
2022-08-17T05:13:51.461Z,987.76
2022-08-17T05:14:51.480Z,987.76
2022-08-17T05:15:51.501Z,987.76
2022-08-17T05:16:51.454Z,987.76
2022-08-17T05:17:51.439Z,987.79
2022-08-17T05:18:51.449Z,987.77
2022-08-17T05:19:52.119Z,987.77
2022-08-17T05:20:52.667Z,987.85
2022-08-17T05:21:51.457Z,987.76
2022-08-17T05:22:51.528Z,987.75
2022-08-17T05:23:54.869Z,987.74
2022-08-17T05:24:53.980Z,987.80
2022-08-17T05:25:51.403Z,987.71
2022-08-17T05:26:51.407Z,987.75
2022-08-17T05:27:51.391Z,987.81
2022-08-17T05:28:51.380Z,987.82
2022-08-17T05:29:51.356Z,987.79
2022-08-17T05:30:51.357Z,987.79
2022-08-17T05:31:51.388Z,987.76
2022-08-17T05:32:51.407Z,987.74
2022-08-17T05:33:51.346Z,987.72
2022-08-17T05:34:51.334Z,987.72
2022-08-17T05:35:51.336Z,987.71
2022-08-17T05:36:51.377Z,987.68
2022-08-17T05:37:51.305Z,987.69
2022-08-17T05:38:51.300Z,987.71
2022-08-17T05:39:51.338Z,987.63
2022-08-17T05:40:51.294Z,987.65
2022-08-17T05:41:51.478Z,987.65
2022-08-17T05:42:51.419Z,987.62
2022-08-17T05:43:56.065Z,987.60
2022-08-17T05:44:53.478Z,987.68
2022-08-17T05:45:55.907Z,987.67
2022-08-17T05:46:51.289Z,987.68
2022-08-17T05:47:51.273Z,987.64
2022-08-17T05:48:51.237Z,987.68
2022-08-17T05:49:51.232Z,987.68
2022-08-17T05:50:51.229Z,987.60
2022-08-17T05:51:51.246Z,987.63
2022-08-17T05:52:51.454Z,987.66
2022-08-17T05:53:51.248Z,987.66
2022-08-17T05:54:51.204Z,987.64
2022-08-17T05:55:51.186Z,987.70
2022-08-17T05:56:51.181Z,987.56
2022-08-17T05:57:53.796Z,987.63
2022-08-17T05:58:51.168Z,987.62
2022-08-17T05:59:51.188Z,987.64
2022-08-17T06:00:51.239Z,987.63
2022-08-17T06:01:51.150Z,987.58
2022-08-17T06:02:51.484Z,987.58
2022-08-17T06:03:51.181Z,987.54
2022-08-17T06:04:52.164Z,987.53
2022-08-17T06:05:51.121Z,987.61
2022-08-17T06:06:51.123Z,987.55
2022-08-17T06:07:51.108Z,987.57
2022-08-17T06:08:51.480Z,987.57
2022-08-17T06:09:51.101Z,987.55
2022-08-17T06:10:51.091Z,987.55
2022-08-17T06:11:53.715Z,987.60
2022-08-17T06:12:51.259Z,987.65
2022-08-17T06:13:51.094Z,987.61
2022-08-17T06:14:51.056Z,987.63
2022-08-17T06:15:51.056Z,987.66
2022-08-17T06:16:51.041Z,987.71
2022-08-17T06:17:51.079Z,987.69
2022-08-17T06:18:51.091Z,987.68
2022-08-17T06:19:51.018Z,987.72
2022-08-17T06:20:51.010Z,987.72
2022-08-17T06:21:51.009Z,987.70
2022-08-17T06:22:51.245Z,987.70
2022-08-17T06:23:51.028Z,987.72
2022-08-17T06:24:50.979Z,987.67
2022-08-17T06:25:50.970Z,987.63
2022-08-17T06:26:50.965Z,987.62
2022-08-17T06:27:53.490Z,987.60
2022-08-17T06:28:50.950Z,987.61
2022-08-17T06:29:50.977Z,987.62
2022-08-17T06:30:58.326Z,987.65
2022-08-17T06:31:51.949Z,987.62
2022-08-17T06:32:51.175Z,987.66
2022-08-17T06:33:50.913Z,987.59
2022-08-17T06:34:50.928Z,987.57
2022-08-17T06:35:50.903Z,987.52
2022-08-17T06:36:50.904Z,987.54
2022-08-17T06:37:50.886Z,987.51
2022-08-17T06:38:50.886Z,987.53
2022-08-17T06:39:50.963Z,987.48
2022-08-17T06:40:50.867Z,987.53
2022-08-17T06:41:50.853Z,987.46
2022-08-17T06:43:02.454Z,987.47
2022-08-17T06:43:51.849Z,987.52
2022-08-17T06:44:51.610Z,987.54
2022-08-17T06:45:50.834Z,987.50
2022-08-17T06:46:50.834Z,987.53
2022-08-17T06:47:50.828Z,987.50
2022-08-17T06:48:50.820Z,987.52
2022-08-17T06:49:55.297Z,987.47
2022-08-17T06:50:51.829Z,987.48
2022-08-17T06:51:50.791Z,987.51
2022-08-17T06:52:50.801Z,987.54
2022-08-17T06:53:50.780Z,987.39
2022-08-17T06:54:50.802Z,987.42
2022-08-17T06:55:51.563Z,987.49
2022-08-17T06:56:53.169Z,987.40
2022-08-17T06:57:50.750Z,987.40
2022-08-17T06:58:50.741Z,987.43
2022-08-17T06:59:56.451Z,987.46
2022-08-17T07:00:56.630Z,987.45
2022-08-17T07:01:50.724Z,987.41
2022-08-17T07:02:52.281Z,987.50
2022-08-17T07:03:50.710Z,987.51
2022-08-17T07:04:50.710Z,987.53
2022-08-17T07:05:50.781Z,987.48
2022-08-17T07:06:50.697Z,987.50
2022-08-17T07:07:50.699Z,987.49
2022-08-17T07:08:50.692Z,987.53
2022-08-17T07:09:50.700Z,987.51
2022-08-17T07:10:50.698Z,987.56
2022-08-17T07:11:50.667Z,987.53
2022-08-17T07:12:50.773Z,987.56
2022-08-17T07:13:51.624Z,987.62
2022-08-17T07:14:50.632Z,987.64
2022-08-17T07:15:54.019Z,987.53
2022-08-17T07:16:52.645Z,987.56
2022-08-17T07:17:50.614Z,987.57
2022-08-17T07:18:50.614Z,987.53
2022-08-17T07:19:50.609Z,987.56
2022-08-17T07:20:50.590Z,987.50
2022-08-17T07:21:50.615Z,987.49
2022-08-17T07:22:59.647Z,987.46
2022-08-17T07:23:51.576Z,987.51
2022-08-17T07:24:50.580Z,987.55
2022-08-17T07:25:50.592Z,987.55
2022-08-17T07:26:50.605Z,987.58
2022-08-17T07:27:50.678Z,987.62
2022-08-17T07:28:50.526Z,987.56
2022-08-17T07:29:50.531Z,987.64
2022-08-17T07:30:50.518Z,987.64
2022-08-17T07:31:50.543Z,987.60
2022-08-17T07:32:50.504Z,987.52
2022-08-17T07:33:50.498Z,987.56
2022-08-17T07:34:50.493Z,987.54
2022-08-17T07:35:50.481Z,987.60
2022-08-17T07:36:50.462Z,987.57
2022-08-17T07:37:50.673Z,987.53
2022-08-17T07:38:50.457Z,987.57
2022-08-17T07:40:14.710Z,987.57
2022-08-17T07:40:51.443Z,987.57
2022-08-17T07:41:53.159Z,987.61
2022-08-17T07:42:51.457Z,987.58
2022-08-17T07:43:50.455Z,987.61
2022-08-17T07:44:50.413Z,987.63
2022-08-17T07:45:50.407Z,987.61
2022-08-17T07:46:50.398Z,987.62
2022-08-17T07:47:50.591Z,987.57
2022-08-17T07:48:50.388Z,987.66
2022-08-17T07:49:50.388Z,987.64
2022-08-17T07:50:50.731Z,987.60
2022-08-17T07:51:50.379Z,987.67
2022-08-17T07:52:52.156Z,987.64
2022-08-17T07:53:50.355Z,987.69
2022-08-17T07:54:50.351Z,987.69
2022-08-17T07:55:50.353Z,987.63
2022-08-17T07:56:50.326Z,987.66
2022-08-17T07:57:50.518Z,987.69
2022-08-17T07:58:50.353Z,987.63
2022-08-17T07:59:50.314Z,987.66
2022-08-17T08:00:50.312Z,987.66
2022-08-17T08:01:55.503Z,987.60
2022-08-17T08:02:51.301Z,987.59
2022-08-17T08:03:52.563Z,987.66
2022-08-17T08:05:00.469Z,987.61
2022-08-17T08:05:52.284Z,987.66
2022-08-17T08:06:50.326Z,987.57
2022-08-17T08:07:50.645Z,987.54
2022-08-17T08:08:50.347Z,987.56
2022-08-17T08:09:50.245Z,987.51
2022-08-17T08:10:50.242Z,987.54
2022-08-17T08:11:50.254Z,987.51
2022-08-17T08:12:53.749Z,987.52
2022-08-17T08:13:50.266Z,987.57
2022-08-17T08:14:50.217Z,987.53
2022-08-17T08:15:53.767Z,987.53
2022-08-17T08:16:50.201Z,987.50
2022-08-17T08:17:50.408Z,987.52
2022-08-17T08:18:56.052Z,987.52
2022-08-17T08:19:51.207Z,987.53
2022-08-17T08:20:53.111Z,987.54
2022-08-17T08:21:50.167Z,987.52
2022-08-17T08:22:50.164Z,987.55
2022-08-17T08:23:50.161Z,987.45
2022-08-17T08:24:50.168Z,987.55
2022-08-17T08:25:53.449Z,987.47
2022-08-17T08:26:51.127Z,987.52
2022-08-17T08:27:50.285Z,987.45
2022-08-17T08:28:50.147Z,987.46
2022-08-17T08:29:50.173Z,987.46
2022-08-17T08:30:50.110Z,987.48
2022-08-17T08:31:50.128Z,987.49
2022-08-17T08:32:50.397Z,987.43
2022-08-17T08:33:50.105Z,987.50
2022-08-17T08:35:01.547Z,987.52
2022-08-17T08:35:51.073Z,987.51
2022-08-17T08:36:57.082Z,987.56
2022-08-17T08:37:51.092Z,987.55
2022-08-17T08:38:50.049Z,987.57
2022-08-17T08:39:50.088Z,987.57
2022-08-17T08:40:50.061Z,987.61
2022-08-17T08:41:50.026Z,987.66
2022-08-17T08:42:50.026Z,987.58
2022-08-17T08:43:52.972Z,987.64
2022-08-17T08:45:01.121Z,987.63
2022-08-17T08:45:51.026Z,987.63
2022-08-17T08:46:49.998Z,987.65
2022-08-17T08:47:50.124Z,987.66
2022-08-17T08:48:55.860Z,987.64
2022-08-17T08:50:06.030Z,987.58
2022-08-17T08:50:51.983Z,987.53
2022-08-17T08:51:50.663Z,987.57
2022-08-17T08:52:49.943Z,987.56
2022-08-17T08:53:50.939Z,987.50
2022-08-17T08:54:50.936Z,987.53
2022-08-17T08:55:49.968Z,987.55
2022-08-17T08:57:19.842Z,987.49
2022-08-17T08:57:52.088Z,987.55
2022-08-17T08:58:49.909Z,987.54
2022-08-17T08:59:51.154Z,987.52
2022-08-17T09:00:50.954Z,987.54
2022-08-17T09:01:49.925Z,987.52
2022-08-17T09:02:49.895Z,987.44
2022-08-17T09:03:53.099Z,987.47
2022-08-17T09:05:13.332Z,987.48
2022-08-17T09:05:51.917Z,987.52
2022-08-17T09:06:49.973Z,987.39
2022-08-17T09:07:50.007Z,987.47
2022-08-17T09:08:49.841Z,987.44
2022-08-17T09:09:49.839Z,987.39
2022-08-17T09:10:49.824Z,987.44
2022-08-17T09:12:02.011Z,987.49
2022-08-17T09:12:51.820Z,987.58
2022-08-17T09:13:54.290Z,987.52
2022-08-17T09:14:49.809Z,987.53
2022-08-17T09:15:49.800Z,987.53
2022-08-17T09:16:49.832Z,987.52
2022-08-17T09:17:59.278Z,987.49
2022-08-17T09:19:02.955Z,987.40
2022-08-17T09:19:50.785Z,987.41
2022-08-17T09:20:50.424Z,987.43
2022-08-17T09:21:50.804Z,987.38
2022-08-17T09:22:49.762Z,987.38
2022-08-17T09:23:49.767Z,987.32
2022-08-17T09:24:49.756Z,987.30
2022-08-17T09:25:49.749Z,987.27
2022-08-17T09:26:49.793Z,987.29
2022-08-17T09:27:50.007Z,987.24
2022-08-17T09:28:49.725Z,987.19
2022-08-17T09:29:49.732Z,987.22
2022-08-17T09:30:49.733Z,987.24
2022-08-17T09:31:49.773Z,987.25
2022-08-17T09:32:49.812Z,987.29
2022-08-17T09:33:49.695Z,987.28
2022-08-17T09:34:49.699Z,987.27
2022-08-17T09:35:49.688Z,987.27
2022-08-17T09:36:49.681Z,987.26
2022-08-17T09:37:49.837Z,987.32
2022-08-17T09:38:49.681Z,987.34
2022-08-17T09:39:49.707Z,987.32
2022-08-17T09:40:49.659Z,987.28
2022-08-17T09:41:49.665Z,987.26
2022-08-17T09:42:49.679Z,987.33
2022-08-17T09:43:49.656Z,987.26
2022-08-17T09:44:49.655Z,987.23
2022-08-17T09:45:49.636Z,987.25
2022-08-17T09:46:49.612Z,987.25
2022-08-17T09:47:49.936Z,987.27
2022-08-17T09:48:49.618Z,987.26
2022-08-17T09:49:49.616Z,987.29
2022-08-17T09:50:55.474Z,987.28
2022-08-17T09:51:50.602Z,987.31
2022-08-17T09:52:49.637Z,987.36
2022-08-17T09:53:49.854Z,987.40
2022-08-17T09:54:50.589Z,987.37
2022-08-17T09:55:49.610Z,987.34
2022-08-17T09:57:00.828Z,987.33
2022-08-17T09:57:51.780Z,987.31
2022-08-17T09:58:49.578Z,987.30
2022-08-17T09:59:49.568Z,987.34
2022-08-17T10:00:49.598Z,987.33
2022-08-17T10:01:49.556Z,987.34
2022-08-17T10:02:49.536Z,987.34
2022-08-17T10:03:49.564Z,987.28
2022-08-17T10:04:49.533Z,987.33
2022-08-17T10:05:49.522Z,987.35
2022-08-17T10:06:50.525Z,987.36
2022-08-17T10:07:49.680Z,987.37
2022-08-17T10:08:49.542Z,987.36
2022-08-17T10:09:49.525Z,987.35
2022-08-17T10:10:52.453Z,987.34
2022-08-17T10:11:50.476Z,987.35
2022-08-17T10:12:49.485Z,987.37
2022-08-17T10:13:53.037Z,987.35
2022-08-17T10:14:53.511Z,987.34
2022-08-17T10:15:50.463Z,987.29
2022-08-17T10:16:49.458Z,987.38
2022-08-17T10:17:49.569Z,987.28
2022-08-17T10:18:49.622Z,987.29
2022-08-17T10:19:49.449Z,987.30
2022-08-17T10:20:49.430Z,987.28
2022-08-17T10:21:49.422Z,987.30
2022-08-17T10:22:54.808Z,987.26
2022-08-17T10:23:49.414Z,987.27
2022-08-17T10:25:21.026Z,987.27
2022-08-17T10:25:55.200Z,987.25
2022-08-17T10:26:57.259Z,987.28
2022-08-17T10:27:49.641Z,987.22
2022-08-17T10:28:49.389Z,987.20
2022-08-17T10:29:49.757Z,987.29
2022-08-17T10:30:49.362Z,987.22
2022-08-17T10:31:49.353Z,987.20
2022-08-17T10:32:49.348Z,987.21
2022-08-17T10:33:49.347Z,987.21
2022-08-17T10:34:49.372Z,987.19
2022-08-17T10:35:49.329Z,987.22
2022-08-17T10:36:49.315Z,987.21
2022-08-17T10:37:49.409Z,987.23
2022-08-17T10:38:49.309Z,987.33
2022-08-17T10:39:51.931Z,987.26
2022-08-17T10:40:49.309Z,987.31
2022-08-17T10:41:49.297Z,987.28
2022-08-17T10:42:49.288Z,987.32
2022-08-17T10:44:36.735Z,987.36
2022-08-17T10:44:50.361Z,987.32
2022-08-17T10:45:49.279Z,987.36
2022-08-17T10:46:50.282Z,987.39
2022-08-17T10:47:55.408Z,987.37
2022-08-17T10:48:51.264Z,987.41
2022-08-17T10:49:49.260Z,987.29
2022-08-17T10:50:49.268Z,987.35
2022-08-17T10:51:49.243Z,987.39
2022-08-17T10:52:49.239Z,987.38
2022-08-17T10:53:49.282Z,987.42
2022-08-17T10:54:49.213Z,987.37
2022-08-17T10:55:49.238Z,987.46
2022-08-17T10:56:49.213Z,987.43
2022-08-17T10:57:49.347Z,987.43
2022-08-17T10:58:49.205Z,987.41
2022-08-17T10:59:49.208Z,987.44
2022-08-17T11:00:49.327Z,987.47
2022-08-17T11:01:49.192Z,987.44
2022-08-17T11:02:49.583Z,987.47
2022-08-17T11:03:49.191Z,987.45
2022-08-17T11:04:49.173Z,987.50
2022-08-17T11:05:49.211Z,987.48
2022-08-17T11:06:49.148Z,987.39
2022-08-17T11:07:49.155Z,987.46
2022-08-17T11:08:49.150Z,987.43
2022-08-17T11:09:49.141Z,987.47
2022-08-17T11:10:52.068Z,987.51
2022-08-17T11:11:50.156Z,987.51
2022-08-17T11:12:49.215Z,987.55
2022-08-17T11:13:49.119Z,987.50
2022-08-17T11:14:49.111Z,987.52
2022-08-17T11:15:49.108Z,987.43
2022-08-17T11:16:50.127Z,987.52
2022-08-17T11:17:49.099Z,987.49
2022-08-17T11:18:49.073Z,987.53
2022-08-17T11:19:49.084Z,987.59
2022-08-17T11:20:49.085Z,987.46
2022-08-17T11:21:49.124Z,987.56
2022-08-17T11:22:49.143Z,987.54
2022-08-17T11:23:49.066Z,987.52
2022-08-17T11:24:49.052Z,987.53
2022-08-17T11:25:49.049Z,987.55
2022-08-17T11:26:49.095Z,987.58
2022-08-17T11:27:49.030Z,987.54
2022-08-17T11:28:52.608Z,987.57
2022-08-17T11:29:52.641Z,987.50
2022-08-17T11:30:51.008Z,987.53
2022-08-17T11:31:49.019Z,987.53
2022-08-17T11:32:54.483Z,987.59
2022-08-17T11:33:50.013Z,987.54
2022-08-17T11:34:49.006Z,987.53
2022-08-17T11:35:49.005Z,987.46
2022-08-17T11:36:49.001Z,987.54
2022-08-17T11:37:49.014Z,987.49
2022-08-17T11:38:48.981Z,987.46
2022-08-17T11:39:49.062Z,987.49
2022-08-17T11:40:48.991Z,987.52
2022-08-17T11:41:48.960Z,987.45
2022-08-17T11:42:49.521Z,987.48
2022-08-17T11:43:49.190Z,987.44
2022-08-17T11:44:48.961Z,987.44
2022-08-17T11:45:48.950Z,987.40
2022-08-17T11:46:51.870Z,987.47
2022-08-17T11:48:02.516Z,987.44
2022-08-17T11:48:50.927Z,987.47
2022-08-17T11:49:48.924Z,987.45
2022-08-17T11:50:48.915Z,987.44
2022-08-17T11:51:48.933Z,987.45
2022-08-17T11:52:49.259Z,987.42
2022-08-17T11:53:49.058Z,987.47
2022-08-17T11:54:48.887Z,987.43
2022-08-17T11:55:48.893Z,987.44
2022-08-17T11:56:48.890Z,987.44
2022-08-17T11:57:48.947Z,987.45
2022-08-17T11:58:48.912Z,987.46
2022-08-17T11:59:48.864Z,987.50
2022-08-17T12:00:48.870Z,987.49
2022-08-17T12:01:48.860Z,987.45
2022-08-17T12:02:49.010Z,987.47
2022-08-17T12:03:55.280Z,987.48
2022-08-17T12:04:49.929Z,987.46
2022-08-17T12:05:48.818Z,987.49
2022-08-17T12:06:48.823Z,987.49
2022-08-17T12:07:49.105Z,987.51
2022-08-17T12:08:48.875Z,987.59
2022-08-17T12:09:49.821Z,987.52
2022-08-17T12:10:48.801Z,987.54
2022-08-17T12:11:55.575Z,987.55
2022-08-17T12:12:49.800Z,987.53
2022-08-17T12:13:48.839Z,987.55
2022-08-17T12:15:09.695Z,987.60
2022-08-17T12:15:50.780Z,987.56
2022-08-17T12:16:48.784Z,987.51
2022-08-17T12:17:48.779Z,987.57
2022-08-17T12:18:48.747Z,987.57
2022-08-17T12:19:48.780Z,987.58
2022-08-17T12:20:52.025Z,987.64
2022-08-17T12:21:49.738Z,987.57
2022-08-17T12:22:48.722Z,987.58
2022-08-17T12:23:48.726Z,987.55
2022-08-17T12:24:48.756Z,987.61
2022-08-17T12:25:48.724Z,987.58
2022-08-17T12:26:48.719Z,987.55
2022-08-17T12:28:06.223Z,987.58
2022-08-17T12:28:49.706Z,987.59